Time;durP1;ratioP1;P1;durP2;ratioP2;P2;SDS_P1;SDS_P2;PMS_P1;PMS_P2;Temp;Humidity;BMP_temperature;BMP_pressure;BME280_temperature;BME280_humidity;BME280_pressure;Samples;Min_cycle;Max_cycle;Signal;HPM_P1;HPM_P2
2023/05/11 00:02:29;;;;;;;1.42;1.33;;;;;;;19.39;64.76;101123.75;20906348;28;20413;-65
2023/05/11 00:12:30;;;;;;;1.20;1.00;;;;;;;19.40;64.69;101128.16;20907299;28;20049;-64
2023/05/11 00:22:32;;;;;;;1.23;1.10;;;;;;;19.39;64.74;101121.06;20906047;28;20056;-64
2023/05/11 00:32:33;;;;;;;1.20;1.02;;;;;;;19.37;64.53;101118.50;20903680;28;20056;-65
2023/05/11 00:42:35;;;;;;;1.17;1.10;;;;;;;19.38;64.65;101111.25;20877747;28;20079;-64
2023/05/11 00:52:37;;;;;;;1.00;1.00;;;;;;;19.36;64.74;101113.25;20903556;28;20390;-64
2023/05/11 01:02:38;;;;;;;1.20;1.10;;;;;;;19.35;64.59;101107.00;20901641;28;20102;-64
2023/05/11 01:12:56;;;;;;;1.30;1.20;;;;;;;19.35;64.71;101114.22;20900665;28;20052;-64
2023/05/11 01:23:26;;;;;;;1.00;1.00;;;;;;;19.34;64.57;101116.09;20900312;28;20049;-64
2023/05/11 01:33:31;;;;;;;1.38;1.27;;;;;;;19.25;64.70;101107.00;20899871;28;20107;-64
2023/05/11 01:43:34;;;;;;;1.10;1.00;;;;;;;19.32;64.70;101117.22;20905253;28;20128;-64
2023/05/11 01:53:37;;;;;;;1.33;1.23;;;;;;;19.25;64.54;101112.38;20898622;28;20584;-65
2023/05/11 02:03:40;;;;;;;1.30;1.20;;;;;;;19.30;64.73;101130.00;20899057;28;20045;-64
2023/05/11 02:13:44;;;;;;;1.13;1.02;;;;;;;19.28;64.49;101131.00;20898040;28;20428;-64
2023/05/11 02:23:46;;;;;;;1.15;1.05;;;;;;;19.27;64.51;101132.00;20892255;28;20044;-64
2023/05/11 02:33:49;;;;;;;1.33;1.23;;;;;;;19.27;64.38;101134.69;20889878;28;20052;-64
2023/05/11 02:43:53;;;;;;;;;;;;;;;19.25;64.18;101136.69;20906400;28;20049;-64
2023/05/11 02:53:58;;;;;;;1.50;1.40;;;;;;;19.18;64.50;101135.53;20911534;28;20331;-64
2023/05/11 03:04:04;;;;;;;1.38;1.20;;;;;;;19.23;64.41;101141.38;20895202;28;20110;-64
2023/05/11 03:14:06;;;;;;;2.05;1.85;;;;;;;19.23;64.20;101144.06;20911486;28;20049;-64
2023/05/11 03:24:08;;;;;;;2.25;1.90;;;;;;;19.23;64.21;101140.53;20908757;28;20055;-64
2023/05/11 03:34:10;;;;;;;2.20;2.00;;;;;;;19.23;64.38;101141.38;20896832;28;20053;-64
2023/05/11 03:44:18;;;;;;;2.05;1.85;;;;;;;19.21;64.09;101132.56;20907728;28;20520;-64
2023/05/11 03:54:21;;;;;;;3.28;2.47;;;;;;;19.18;64.11;101130.13;20890605;28;20052;-64
2023/05/11 04:04:30;;;;;;;2.88;2.22;;;;;;;19.22;64.00;101134.25;20907200;28;20045;-65
2023/05/11 04:14:33;;;;;;;2.65;2.42;;;;;;;19.22;64.32;101139.66;20905716;28;20114;-65
2023/05/11 04:24:34;;;;;;;3.10;2.80;;;;;;;19.21;64.18;101143.34;20904507;28;20107;-64
2023/05/11 04:34:36;;;;;;;2.83;2.40;;;;;;;19.21;64.10;101154.16;20890007;28;20049;-64
2023/05/11 04:44:39;;;;;;;2.40;2.20;;;;;;;19.20;64.04;101162.38;20886362;28;20452;-64
2023/05/11 04:54:41;;;;;;;3.13;2.75;;;;;;;19.20;64.19;101155.13;20902544;28;20064;-64
2023/05/11 05:04:43;;;;;;;2.28;2.08;;;;;;;19.19;64.04;101156.13;20902790;28;20088;-64
2023/05/11 05:14:44;;;;;;;2.33;2.13;;;;;;;19.20;64.12;101171.34;20902256;28;20048;-64
2023/05/11 05:24:46;;;;;;;1.92;1.77;;;;;;;19.19;64.16;101169.63;20901733;28;20409;-64
2023/05/11 05:34:48;;;;;;;1.90;1.70;;;;;;;19.19;64.04;101177.72;20890366;28;20056;-64
2023/05/11 05:44:50;;;;;;;2.45;2.00;;;;;;;19.18;64.10;101192.22;20899120;28;20749;-64
2023/05/11 05:54:53;;;;;;;1.92;1.52;;;;;;;19.19;64.25;101203.84;20905789;28;20328;-64
2023/05/11 06:04:55;;;;;;;2.10;1.70;;;;;;;19.17;63.99;101217.50;20915638;28;20098;-64
2023/05/11 06:14:56;;;;;;;1.55;1.45;;;;;;;19.18;64.10;101227.31;20914181;28;20468;-64
2023/05/11 06:24:59;;;;;;;1.90;1.70;;;;;;;19.18;64.31;101234.53;20913757;28;20052;-64
2023/05/11 06:35:04;;;;;;;3.95;1.95;;;;;;;19.17;64.22;101233.69;20900783;28;20485;-64
2023/05/11 06:45:07;;;;;;;1.63;1.52;;;;;;;19.17;64.21;101228.28;20896239;28;20061;-64
2023/05/11 06:55:13;;;;;;;1.90;1.80;;;;;;;19.17;64.45;101240.91;20911543;28;20045;-65
2023/05/11 07:05:14;;;;;;;1.65;1.55;;;;;;;19.16;64.46;101236.50;20911435;28;20497;-64
2023/05/11 07:15:16;;;;;;;1.75;1.60;;;;;;;19.16;64.15;101242.78;20911405;28;20051;-64
2023/05/11 07:25:17;;;;;;;2.42;2.08;;;;;;;19.16;64.47;101250.00;20905586;28;20064;-64
2023/05/11 07:35:19;;;;;;;2.15;1.95;;;;;;;19.15;64.45;101262.66;20826122;28;20053;-64
2023/05/11 07:45:23;;;;;;;2.25;2.05;;;;;;;19.14;64.42;101277.13;20825688;28;20049;-64
2023/05/11 07:55:25;;;;;;;1.63;1.52;;;;;;;19.14;64.32;101271.75;20826307;28;20046;-65
2023/05/11 08:05:27;;;;;;;1.77;1.60;;;;;;;19.14;64.70;101277.13;20823675;28;20053;-64
2023/05/11 08:15:29;;;;;;;1.83;1.70;;;;;;;19.14;64.59;101279.84;20823596;28;20049;-65
2023/05/11 08:25:30;;;;;;;1.52;1.42;;;;;;;19.14;64.63;101277.13;20831230;28;20132;-65
2023/05/11 08:35:32;;;;;;;2.15;1.45;;;;;;;19.14;64.81;101287.94;20902516;28;20464;-64
2023/05/11 08:45:35;;;;;;;1.30;1.20;;;;;;;19.14;64.87;101279.84;20903506;28;20060;-65
2023/05/11 08:55:40;;;;;;;1.50;1.40;;;;;;;19.15;64.90;101276.16;20903869;28;20436;-64
2023/05/11 09:05:44;;;;;;;1.20;1.10;;;;;;;19.14;64.75;101279.84;20902499;28;20140;-64
2023/05/11 09:15:46;;;;;;;1.10;1.00;;;;;;;19.15;64.87;101297.75;20901620;28;20136;-65
2023/05/11 09:25:48;;;;;;;1.60;1.02;;;;;;;19.14;64.83;101282.53;20886630;28;20116;-64
2023/05/11 09:35:49;;;;;;;1.20;1.10;;;;;;;19.11;65.07;101288.22;20900111;28;20045;-64
2023/05/11 09:45:56;;;;;;;1.30;1.20;;;;;;;19.15;65.01;101278.84;20900447;28;20132;-64
2023/05/11 09:55:58;;;;;;;1.20;1.10;;;;;;;19.16;64.98;101296.75;20899768;28;20123;-64
2023/05/11 10:06:00;;;;;;;1.48;1.38;;;;;;;19.16;65.26;101279.69;20899632;28;20103;-65
2023/05/11 10:16:05;;;;;;;1.10;1.00;;;;;;;19.15;65.08;101278.84;20899116;28;20045;-64
2023/05/11 10:26:08;;;;;;;1.20;1.10;;;;;;;19.12;65.25;101279.13;20889097;28;20057;-64
2023/05/11 10:36:10;;;;;;;1.50;1.20;;;;;;;19.15;65.26;101275.28;20897283;28;20102;-64
2023/05/11 10:46:33;;;;;;;1.50;1.40;;;;;;;19.22;65.33;101277.31;20911195;28;20049;-64
2023/05/11 10:56:56;;;;;;;1.27;1.17;;;;;;;19.22;65.56;101274.63;20912925;28;20056;-64
2023/05/11 11:07:04;;;;;;;1.38;1.27;;;;;;;19.25;65.41;101279.75;20894717;28;20049;-64
2023/05/11 11:17:23;;;;;;;1.38;1.20;;;;;;;19.27;65.43;101272.34;20911103;28;20091;-65
2023/05/11 11:27:39;;;;;;;1.65;1.48;;;;;;;19.32;65.52;101274.66;20895984;28;20079;-65
2023/05/11 11:38:02;;;;;;;2.42;1.48;;;;;;;19.34;65.61;101261.00;20909722;28;20041;-65
2023/05/11 11:48:12;;;;;;;1.50;1.40;;;;;;;19.36;65.70;101269.81;20908978;28;20529;-64
2023/05/11 11:58:42;;;;;;;1.20;1.10;;;;;;;19.38;65.58;101267.84;20906278;28;20049;-64
2023/05/11 12:08:43;;;;;;;1.33;1.23;;;;;;;19.39;65.77;101273.13;20907128;28;20080;-64
2023/05/11 12:18:53;;;;;;;1.30;1.20;;;;;;;19.42;65.70;101263.88;20898073;28;20041;-64
2023/05/11 12:29:08;;;;;;;1.30;1.20;;;;;;;19.42;65.63;101263.88;20822896;28;20570;-64
2023/05/11 12:39:19;;;;;;;1.50;1.40;;;;;;;19.45;65.69;101263.63;20822915;28;20049;-64
2023/05/11 12:49:25;;;;;;;1.40;1.30;;;;;;;19.41;65.67;101245.97;20821704;28;20133;-64
2023/05/11 12:59:36;;;;;;;1.15;1.05;;;;;;;19.48;65.66;101257.06;20821279;28;20053;-64
2023/05/11 13:09:39;;;;;;;1.73;1.42;;;;;;;19.49;65.71;101262.34;20820229;28;20037;-64
2023/05/11 13:19:41;;;;;;;1.10;1.00;;;;;;;19.49;65.50;101264.19;20833377;28;20599;-64
2023/05/11 13:29:42;;;;;;;1.08;1.00;;;;;;;19.48;65.39;101263.34;20901885;28;20048;-64
2023/05/11 13:39:44;;;;;;;1.20;1.10;;;;;;;19.49;65.23;101253.38;20901296;28;20061;-64
2023/05/11 13:49:46;;;;;;;0.95;0.90;;;;;;;19.49;65.17;101247.97;20899080;28;20053;-64
2023/05/11 13:59:47;;;;;;;0.88;0.80;;;;;;;19.48;65.24;101257.94;20900056;28;20045;-65
2023/05/11 14:09:49;;;;;;;1.20;1.10;;;;;;;19.47;65.36;101253.53;20899781;28;20698;-64
2023/05/11 14:19:51;;;;;;;0.90;0.90;;;;;;;19.46;65.30;101254.53;20895470;28;20045;-65
2023/05/11 14:29:53;;;;;;;0.90;0.80;;;;;;;19.47;65.34;101244.56;20914880;28;20053;-65
2023/05/11 14:39:55;;;;;;;1.05;0.80;;;;;;;19.40;65.25;101244.25;20914399;28;20053;-65
2023/05/11 14:49:56;;;;;;;1.10;0.82;;;;;;;19.48;65.08;101257.06;20914414;28;20061;-65
2023/05/11 14:59:58;;;;;;;1.00;0.90;;;;;;;19.47;65.12;101255.38;20912917;28;20381;-65
2023/05/11 15:10:01;;;;;;;0.80;0.80;;;;;;;19.45;65.00;101249.25;20912328;28;20049;-64
2023/05/11 15:20:03;;;;;;;0.77;0.73;;;;;;;19.44;65.04;101272.69;20900226;28;20057;-65
2023/05/11 15:30:06;;;;;;;0.80;0.80;;;;;;;19.44;64.98;101269.16;20908836;28;20045;-65
2023/05/11 15:40:08;;;;;;;0.65;0.65;;;;;;;19.44;64.83;101278.09;20908403;28;20045;-64
2023/05/11 15:50:09;;;;;;;0.70;0.70;;;;;;;19.44;64.54;101282.66;20908071;28;20497;-65
2023/05/11 16:00:12;;;;;;;1.17;1.08;;;;;;;19.42;64.67;101286.34;20907889;28;20049;-64
2023/05/11 16:10:14;;;;;;;0.60;0.60;;;;;;;19.41;64.60;101284.63;20907134;28;20569;-65
2023/05/11 16:20:16;;;;;;;0.60;0.60;;;;;;;19.39;64.87;101283.91;20893347;28;20052;-64
2023/05/11 16:30:17;;;;;;;0.50;0.50;;;;;;;19.40;64.45;101282.06;20905351;28;20064;-65
2023/05/11 16:40:25;;;;;;;0.60;0.60;;;;;;;19.39;64.74;101291.13;20904761;28;20041;-64
2023/05/11 16:50:27;;;;;;;0.68;0.68;;;;;;;19.34;64.90;101277.22;20903959;28;20044;-65
2023/05/11 17:00:28;;;;;;;0.70;0.70;;;;;;;19.37;65.04;101277.78;20904408;28;20118;-64
2023/05/11 17:10:30;;;;;;;1.00;0.90;;;;;;;19.36;65.33;101280.63;20902508;28;20099;-64
2023/05/11 17:20:32;;;;;;;0.75;0.75;;;;;;;19.35;64.93;101289.72;20885067;28;20049;-64
2023/05/11 17:30:33;;;;;;;0.77;0.70;;;;;;;19.34;65.26;101296.97;20901904;28;20056;-65
2023/05/11 17:40:48;;;;;;;;;;;;;;;19.34;65.49;101304.19;20901120;28;20060;-65
2023/05/11 17:50:51;;;;;;;0.70;0.70;;;;;;;19.32;65.26;101307.06;20899761;28;19927;-64
2023/05/11 18:00:52;;;;;;;0.63;0.63;;;;;;;19.31;65.55;101315.28;20899872;28;20452;-64
2023/05/11 18:10:54;;;;;;;0.65;0.63;;;;;;;19.31;65.56;101326.06;20895309;28;20064;-65
2023/05/11 18:20:56;;;;;;;0.80;0.80;;;;;;;19.31;65.50;101331.47;20892142;28;20076;-64
2023/05/11 18:30:57;;;;;;;1.10;0.80;;;;;;;19.28;65.59;101333.44;20898500;28;20045;-65
2023/05/11 18:41:04;;;;;;;0.73;0.73;;;;;;;19.25;65.68;101341.81;20898870;28;20063;-65
2023/05/11 18:51:05;;;;;;;0.90;0.90;;;;;;;19.27;65.47;101358.72;20897981;28;20051;-64
2023/05/11 19:01:08;;;;;;;0.80;0.80;;;;;;;19.26;65.72;101367.81;20900819;28;20048;-64
2023/05/11 19:11:10;;;;;;;0.70;0.70;;;;;;;19.25;65.61;101368.81;20895889;28;20049;-64
2023/05/11 19:21:11;;;;;;;0.80;0.80;;;;;;;19.24;65.55;101390.56;20910185;28;20045;-64
2023/05/11 19:31:13;;;;;;;1.10;1.00;;;;;;;19.23;65.53;101391.53;20910581;28;20397;-64
2023/05/11 19:41:16;;;;;;;0.80;0.80;;;;;;;19.22;65.33;101404.16;20909865;28;20091;-65
2023/05/11 19:51:17;;;;;;;1.00;1.00;;;;;;;19.20;65.51;101406.16;20908883;28;20055;-64
2023/05/11 20:01:19;;;;;;;1.67;1.30;;;;;;;19.19;65.31;101409.84;20907790;28;20055;-64
2023/05/11 20:11:21;;;;;;;1.35;1.13;;;;;;;19.18;65.46;101410.81;20896644;28;20578;-64
2023/05/11 20:21:22;;;;;;;1.20;1.10;;;;;;;19.17;65.39;101416.34;20905343;28;20052;-64
2023/05/11 20:31:25;;;;;;;0.95;0.95;;;;;;;19.15;65.43;101408.41;20904765;28;20417;-64
2023/05/11 20:41:27;;;;;;;1.23;1.13;;;;;;;19.14;65.25;101401.28;20904651;28;20057;-64
2023/05/11 20:51:28;;;;;;;1.10;1.00;;;;;;;19.10;65.24;101392.59;20904308;28;20053;-64
2023/05/11 21:01:30;;;;;;;2.25;1.30;;;;;;;19.07;65.30;101384.75;20903192;28;20509;-64
2023/05/11 21:11:31;;;;;;;1.10;1.00;;;;;;;19.12;65.16;101398.72;20889047;28;20057;-64
2023/05/11 21:21:33;;;;;;;1.20;1.10;;;;;;;19.12;65.10;101400.56;20902074;28;20382;-64
2023/05/11 21:31:34;;;;;;;1.20;1.10;;;;;;;19.09;65.33;101388.19;20901015;28;20041;-64
2023/05/11 21:41:36;;;;;;;1.67;1.20;;;;;;;19.08;65.04;101397.25;20899519;28;20049;-65
2023/05/11 21:51:38;;;;;;;1.73;1.52;;;;;;;18.99;65.10;101388.09;20900665;28;20056;-64
2023/05/11 22:01:40;;;;;;;1.35;1.10;;;;;;;19.08;65.17;101391.03;20899731;28;20052;-65
2023/05/11 22:11:41;;;;;;;1.25;1.15;;;;;;;19.07;65.11;101392.00;20890950;28;20045;-64
2023/05/11 22:21:43;;;;;;;1.30;1.20;;;;;;;19.06;65.11;101388.44;20899345;28;20045;-64
2023/05/11 22:31:45;;;;;;;1.33;1.20;;;;;;;19.05;64.90;101383.19;20897798;28;20049;-64
2023/05/11 22:41:46;;;;;;;2.03;1.27;;;;;;;19.05;65.28;101381.34;20910602;28;20106;-65
2023/05/11 22:51:48;;;;;;;1.27;1.17;;;;;;;19.04;65.09;101387.72;20913931;28;20626;-64
2023/05/11 23:01:50;;;;;;;1.02;1.02;;;;;;;19.04;65.07;101378.78;20912481;28;20052;-64
2023/05/11 23:11:52;;;;;;;1.25;1.02;;;;;;;19.04;64.90;101379.63;20899571;28;20071;-64
2023/05/11 23:21:53;;;;;;;1.08;1.05;;;;;;;19.03;65.00;101383.31;20909712;28;20059;-65
2023/05/11 23:31:55;;;;;;;0.82;0.82;;;;;;;19.03;64.88;101382.47;20909276;28;20132;-64
2023/05/11 23:41:57;;;;;;;0.70;0.70;;;;;;;19.01;65.19;101379.91;20909432;28;20148;-65
2023/05/11 23:51:59;;;;;;;0.80;0.80;;;;;;;18.94;65.14;101370.59;20907908;28;20516;-64
